sensor_id;sensor_type;location;lat;lon;timestamp;pressure;altitude;pressure_sealevel;temperature;humidity
13695;BME280;6919;52.344;14.518;2022-10-10T00:01:35;101445.56;;;8.58;nan
13695;BME280;6919;52.344;14.518;2022-10-10T00:04:04;101449.09;;;8.59;nan
13695;BME280;6919;52.344;14.518;2022-10-10T00:06:32;101446.06;;;8.63;nan
13695;BME280;6919;52.344;14.518;2022-10-10T00:09:02;101445.69;;;8.68;nan
13695;BME280;6919;52.344;14.518;2022-10-10T00:11:30;101442.19;;;8.56;nan
13695;BME280;6919;52.344;14.518;2022-10-10T00:13:59;101439.84;;;8.52;nan
13695;BME280;6919;52.344;14.518;2022-10-10T00:16:27;101431.84;;;8.52;nan
13695;BME280;6919;52.344;14.518;2022-10-10T00:18:56;101433.19;;;8.57;nan
13695;BME280;6919;52.344;14.518;2022-10-10T00:21:24;101431.47;;;8.56;nan
13695;BME280;6919;52.344;14.518;2022-10-10T00:23:52;101429.75;;;8.55;nan
13695;BME280;6919;52.344;14.518;2022-10-10T00:26:20;101420.03;;;8.54;nan
13695;BME280;6919;52.344;14.518;2022-10-10T00:28:48;101419.44;;;8.62;nan
13695;BME280;6919;52.344;14.518;2022-10-10T00:31:17;101417.59;;;8.62;nan
13695;BME280;6919;52.344;14.518;2022-10-10T00:33:46;101416.78;;;8.62;nan
13695;BME280;6919;52.344;14.518;2022-10-10T00:36:16;101409.00;;;8.59;nan
13695;BME280;6919;52.344;14.518;2022-10-10T00:38:46;101405.47;;;8.58;nan
13695;BME280;6919;52.344;14.518;2022-10-10T00:41:15;101410.44;;;8.63;nan
13695;BME280;6919;52.344;14.518;2022-10-10T00:44:05;101402.06;;;8.67;nan
13695;BME280;6919;52.344;14.518;2022-10-10T00:46:34;101402.31;;;8.64;nan
13695;BME280;6919;52.344;14.518;2022-10-10T00:49:06;101399.53;;;8.66;nan
13695;BME280;6919;52.344;14.518;2022-10-10T00:51:38;101405.81;;;8.54;nan
13695;BME280;6919;52.344;14.518;2022-10-10T00:54:10;101406.09;;;8.51;nan
13695;BME280;6919;52.344;14.518;2022-10-10T00:56:43;101407.78;;;8.52;nan
13695;BME280;6919;52.344;14.518;2022-10-10T00:59:14;101405.81;;;8.54;nan
13695;BME280;6919;52.344;14.518;2022-10-10T01:01:42;101400.75;;;8.51;nan
13695;BME280;6919;52.344;14.518;2022-10-10T01:04:30;101392.59;;;8.52;nan
13695;BME280;6919;52.344;14.518;2022-10-10T01:07:02;101394.41;;;8.52;nan
13695;BME280;6919;52.344;14.518;2022-10-10T01:09:32;101392.34;;;8.44;nan
13695;BME280;6919;52.344;14.518;2022-10-10T01:12:16;101388.09;;;8.42;nan
13695;BME280;6919;52.344;14.518;2022-10-10T01:14:55;101385.06;;;8.46;nan
13695;BME280;6919;52.344;14.518;2022-10-10T01:17:33;101376.66;;;8.40;nan
13695;BME280;6919;52.344;14.518;2022-10-10T01:20:47;101369.28;;;8.43;nan
13695;BME280;6919;52.344;14.518;2022-10-10T01:27:06;101364.53;;;8.36;nan
13695;BME280;6919;52.344;14.518;2022-10-10T01:29:43;101360.41;;;8.32;nan
13695;BME280;6919;52.344;14.518;2022-10-10T01:32:21;101358.94;;;8.28;nan
13695;BME280;6919;52.344;14.518;2022-10-10T01:35:12;101357.38;;;8.25;nan
13695;BME280;6919;52.344;14.518;2022-10-10T01:37:47;101355.41;;;8.27;nan
13695;BME280;6919;52.344;14.518;2022-10-10T01:40:27;101357.59;;;8.33;nan
13695;BME280;6919;52.344;14.518;2022-10-10T01:43:01;101349.94;;;8.29;nan
13695;BME280;6919;52.344;14.518;2022-10-10T01:45:31;101343.91;;;8.27;nan
13695;BME280;6919;52.344;14.518;2022-10-10T01:48:03;101340.81;;;8.20;nan
13695;BME280;6919;52.344;14.518;2022-10-10T01:50:39;101334.44;;;8.23;nan
13695;BME280;6919;52.344;14.518;2022-10-10T01:53:19;101345.00;;;8.24;nan
13695;BME280;6919;52.344;14.518;2022-10-10T01:55:55;101338.78;;;8.24;nan
13695;BME280;6919;52.344;14.518;2022-10-10T01:58:52;101336.56;;;8.18;nan
13695;BME280;6919;52.344;14.518;2022-10-10T02:01:34;101330.50;;;8.16;nan
13695;BME280;6919;52.344;14.518;2022-10-10T02:04:12;101321.50;;;8.17;nan
13695;BME280;6919;52.344;14.518;2022-10-10T02:06:48;101334.44;;;8.23;nan
13695;BME280;6919;52.344;14.518;2022-10-10T02:09:21;101318.84;;;8.06;nan
13695;BME280;6919;52.344;14.518;2022-10-10T02:11:55;101322.34;;;8.06;nan
13695;BME280;6919;52.344;14.518;2022-10-10T02:14:32;101317.88;;;8.07;nan
13695;BME280;6919;52.344;14.518;2022-10-10T02:17:08;101317.63;;;8.10;nan
13695;BME280;6919;52.344;14.518;2022-10-10T02:19:42;101314.09;;;8.09;nan
13695;BME280;6919;52.344;14.518;2022-10-10T02:22:12;101313.84;;;8.12;nan
13695;BME280;6919;52.344;14.518;2022-10-10T02:24:42;101317.63;;;8.10;nan
13695;BME280;6919;52.344;14.518;2022-10-10T02:27:17;101307.28;;;8.05;nan
13695;BME280;6919;52.344;14.518;2022-10-10T02:29:47;101303.91;;;8.14;nan
13695;BME280;6919;52.344;14.518;2022-10-10T02:32:24;101303.91;;;8.14;nan
13695;BME280;6919;52.344;14.518;2022-10-10T02:34:57;101290.91;;;8.10;nan
13695;BME280;6919;52.344;14.518;2022-10-10T02:37:28;101290.81;;;8.00;nan
13695;BME280;6919;52.344;14.518;2022-10-10T02:40:02;101293.59;;;7.99;nan
13695;BME280;6919;52.344;14.518;2022-10-10T02:42:32;101288.97;;;8.01;nan
13695;BME280;6919;52.344;14.518;2022-10-10T02:45:02;101284.00;;;7.96;nan
13695;BME280;6919;52.344;14.518;2022-10-10T02:47:32;101284.13;;;7.95;nan
13695;BME280;6919;52.344;14.518;2022-10-10T02:50:00;101273.44;;;7.95;nan
13695;BME280;6919;52.344;14.518;2022-10-10T02:52:28;101279.25;;;7.89;nan
13695;BME280;6919;52.344;14.518;2022-10-10T02:54:56;101278.78;;;7.95;nan
13695;BME280;6919;52.344;14.518;2022-10-10T02:57:24;101270.03;;;7.93;nan
13695;BME280;6919;52.344;14.518;2022-10-10T02:59:52;101259.47;;;7.91;nan
13695;BME280;6919;52.344;14.518;2022-10-10T03:02:20;101257.41;;;7.95;nan
13695;BME280;6919;52.344;14.518;2022-10-10T03:04:50;101250.25;;;7.84;nan
13695;BME280;6919;52.344;14.518;2022-10-10T03:07:18;101252.09;;;7.95;nan
13695;BME280;6919;52.344;14.518;2022-10-10T03:09:46;101250.88;;;7.77;nan
13695;BME280;6919;52.344;14.518;2022-10-10T03:12:15;101239.91;;;7.69;nan
13695;BME280;6919;52.344;14.518;2022-10-10T03:14:43;101250.47;;;7.70;nan
13695;BME280;6919;52.344;14.518;2022-10-10T03:17:12;101250.25;;;7.62;nan
13695;BME280;6919;52.344;14.518;2022-10-10T03:19:40;101248.78;;;7.69;nan
13695;BME280;6919;52.344;14.518;2022-10-10T03:22:09;101245.53;;;7.66;nan
13695;BME280;6919;52.344;14.518;2022-10-10T03:24:37;101244.53;;;7.67;nan
13695;BME280;6919;52.344;14.518;2022-10-10T03:27:06;101242.22;;;7.73;nan
13695;BME280;6919;52.344;14.518;2022-10-10T03:29:34;101235.56;;;7.68;nan
13695;BME280;6919;52.344;14.518;2022-10-10T03:32:02;101236.41;;;7.68;nan
13695;BME280;6919;52.344;14.518;2022-10-10T03:34:36;101232.66;;;7.71;nan
13695;BME280;6919;52.344;14.518;2022-10-10T03:37:04;101234.34;;;7.61;nan
13695;BME280;6919;52.344;14.518;2022-10-10T03:39:34;101231.06;;;7.57;nan
13695;BME280;6919;52.344;14.518;2022-10-10T03:42:02;101228.75;;;7.53;nan
13695;BME280;6919;52.344;14.518;2022-10-10T03:44:30;101233.00;;;7.55;nan
13695;BME280;6919;52.344;14.518;2022-10-10T03:46:59;101221.97;;;7.60;nan
13695;BME280;6919;52.344;14.518;2022-10-10T03:49:27;101215.53;;;7.51;nan
13695;BME280;6919;52.344;14.518;2022-10-10T03:51:55;101210.19;;;7.51;nan
13695;BME280;6919;52.344;14.518;2022-10-10T03:54:23;101215.66;;;7.61;nan
13695;BME280;6919;52.344;14.518;2022-10-10T03:56:52;101211.28;;;7.49;nan
13695;BME280;6919;52.344;14.518;2022-10-10T03:59:20;101200.22;;;7.53;nan
13695;BME280;6919;52.344;14.518;2022-10-10T04:01:48;101194.91;;;7.53;nan
13695;BME280;6919;52.344;14.518;2022-10-10T04:04:16;101205.47;;;7.55;nan
13695;BME280;6919;52.344;14.518;2022-10-10T04:06:44;101197.94;;;7.49;nan
13695;BME280;6919;52.344;14.518;2022-10-10T04:09:12;101201.56;;;7.48;nan
13695;BME280;6919;52.344;14.518;2022-10-10T04:11:41;101195.53;;;7.46;nan
13695;BME280;6919;52.344;14.518;2022-10-10T04:14:10;101202.78;;;7.44;nan
13695;BME280;6919;52.344;14.518;2022-10-10T04:16:38;101192.09;;;7.44;nan
13695;BME280;6919;52.344;14.518;2022-10-10T04:19:06;101188.72;;;7.42;nan
13695;BME280;6919;52.344;14.518;2022-10-10T04:21:34;101176.84;;;7.35;nan
13695;BME280;6919;52.344;14.518;2022-10-10T04:24:03;101184.50;;;7.39;nan
13695;BME280;6919;52.344;14.518;2022-10-10T04:26:31;101181.06;;;7.37;nan
13695;BME280;6919;52.344;14.518;2022-10-10T04:29:00;101185.66;;;7.24;nan
13695;BME280;6919;52.344;14.518;2022-10-10T04:31:30;101172.72;;;7.31;nan
13695;BME280;6919;52.344;14.518;2022-10-10T04:33:58;101176.56;;;7.27;nan
13695;BME280;6919;52.344;14.518;2022-10-10T04:36:27;101165.66;;;7.30;nan
13695;BME280;6919;52.344;14.518;2022-10-10T04:38:54;101165.91;;;7.27;nan
13695;BME280;6919;52.344;14.518;2022-10-10T04:41:23;101167.59;;;7.17;nan
13695;BME280;6919;52.344;14.518;2022-10-10T04:43:51;101156.91;;;7.06;nan
13695;BME280;6919;52.344;14.518;2022-10-10T04:46:19;101154.09;;;7.07;nan
13695;BME280;6919;52.344;14.518;2022-10-10T04:48:48;101151.81;;;7.03;nan
13695;BME280;6919;52.344;14.518;2022-10-10T04:51:17;101150.84;;;7.04;nan
13695;BME280;6919;52.344;14.518;2022-10-10T04:53:45;101147.94;;;6.96;nan
13695;BME280;6919;52.344;14.518;2022-10-10T04:56:16;101147.75;;;6.86;nan
13695;BME280;6919;52.344;14.518;2022-10-10T04:58:44;101147.69;;;6.99;nan
13695;BME280;6919;52.344;14.518;2022-10-10T05:01:12;101138.69;;;6.89;nan
13695;BME280;6919;52.344;14.518;2022-10-10T05:03:40;101136.50;;;6.83;nan
13695;BME280;6919;52.344;14.518;2022-10-10T05:06:10;101138.31;;;6.82;nan
13695;BME280;6919;52.344;14.518;2022-10-10T05:08:38;101125.25;;;6.79;nan
13695;BME280;6919;52.344;14.518;2022-10-10T05:11:06;101132.38;;;6.79;nan
13695;BME280;6919;52.344;14.518;2022-10-10T05:13:34;101126.78;;;6.71;nan
13695;BME280;6919;52.344;14.518;2022-10-10T05:16:02;101133.44;;;6.65;nan
13695;BME280;6919;52.344;14.518;2022-10-10T05:18:30;101124.50;;;6.77;nan
13695;BME280;6919;52.344;14.518;2022-10-10T05:20:58;101128.97;;;6.88;nan
13695;BME280;6919;52.344;14.518;2022-10-10T05:23:31;101128.72;;;6.80;nan
13695;BME280;6919;52.344;14.518;2022-10-10T05:25:59;101129.19;;;6.74;nan
13695;BME280;6919;52.344;14.518;2022-10-10T05:28:27;101125.34;;;6.78;nan
13695;BME280;6919;52.344;14.518;2022-10-10T05:30:55;101122.94;;;6.86;nan
13695;BME280;6919;52.344;14.518;2022-10-10T05:33:23;101117.59;;;6.86;nan
13695;BME280;6919;52.344;14.518;2022-10-10T05:35:51;101117.97;;;6.92;nan
13695;BME280;6919;52.344;14.518;2022-10-10T05:38:19;101118.50;;;7.08;nan
13695;BME280;6919;52.344;14.518;2022-10-10T05:40:48;101119.66;;;6.93;nan
13695;BME280;6919;52.344;14.518;2022-10-10T05:43:16;101109.53;;;7.20;nan
13695;BME280;6919;52.344;14.518;2022-10-10T05:45:44;101106.97;;;7.19;nan
13695;BME280;6919;52.344;14.518;2022-10-10T05:48:12;101100.81;;;7.18;nan
13695;BME280;6919;52.344;14.518;2022-10-10T05:50:47;101100.81;;;7.29;nan
13695;BME280;6919;52.344;14.518;2022-10-10T05:53:15;101090.63;;;7.34;nan
13695;BME280;6919;52.344;14.518;2022-10-10T05:55:44;101086.03;;;7.36;nan
13695;BME280;6919;52.344;14.518;2022-10-10T05:58:14;101083.47;;;7.24;nan
13695;BME280;6919;52.344;14.518;2022-10-10T06:00:45;101080.94;;;7.33;nan
13695;BME280;6919;52.344;14.518;2022-10-10T06:03:14;101085.16;;;7.36;nan
13695;BME280;6919;52.344;14.518;2022-10-10T06:05:44;101072.78;;;7.46;nan
13695;BME280;6919;52.344;14.518;2022-10-10T06:08:14;101072.16;;;7.42;nan
13695;BME280;6919;52.344;14.518;2022-10-10T06:10:44;101068.03;;;7.49;nan
13695;BME280;6919;52.344;14.518;2022-10-10T06:13:16;101070.69;;;7.60;nan
13695;BME280;6919;52.344;14.518;2022-10-10T06:15:50;101068.13;;;7.81;nan
13695;BME280;6919;52.344;14.518;2022-10-10T06:18:18;101065.16;;;7.95;nan
13695;BME280;6919;52.344;14.518;2022-10-10T06:20:46;101062.09;;;7.99;nan
13695;BME280;6919;52.344;14.518;2022-10-10T06:23:14;101061.81;;;8.13;nan
13695;BME280;6919;52.344;14.518;2022-10-10T06:25:43;101052.94;;;8.24;nan
13695;BME280;6919;52.344;14.518;2022-10-10T06:28:11;101052.31;;;8.31;nan
13695;BME280;6919;52.344;14.518;2022-10-10T06:30:43;101050.22;;;8.35;nan
13695;BME280;6919;52.344;14.518;2022-10-10T06:33:14;101037.53;;;8.48;nan
13695;BME280;6919;52.344;14.518;2022-10-10T06:35:46;101036.03;;;8.55;nan
13695;BME280;6919;52.344;14.518;2022-10-10T06:38:16;101038.34;;;8.48;nan
13695;BME280;6919;52.344;14.518;2022-10-10T06:40:46;101048.22;;;8.48;nan
13695;BME280;6919;52.344;14.518;2022-10-10T06:43:16;101043.19;;;8.34;nan
13695;BME280;6919;52.344;14.518;2022-10-10T06:45:48;101042.00;;;8.47;nan
13695;BME280;6919;52.344;14.518;2022-10-10T06:48:17;101044.44;;;8.50;nan
13695;BME280;6919;52.344;14.518;2022-10-10T06:50:59;101037.38;;;8.29;nan
13695;BME280;6919;52.344;14.518;2022-10-10T06:53:28;101028.38;;;8.30;nan
13695;BME280;6919;52.344;14.518;2022-10-10T06:55:57;101031.00;;;8.41;nan
13695;BME280;6919;52.344;14.518;2022-10-10T06:58:27;101032.38;;;8.35;nan
13695;BME280;6919;52.344;14.518;2022-10-10T07:00:59;101034.72;;;8.49;nan
13695;BME280;6919;52.344;14.518;2022-10-10T07:03:29;101031.38;;;8.57;nan
13695;BME280;6919;52.344;14.518;2022-10-10T07:05:59;101027.50;;;8.91;nan
13695;BME280;6919;52.344;14.518;2022-10-10T07:08:28;101034.44;;;9.03;nan
13695;BME280;6919;52.344;14.518;2022-10-10T07:10:57;101023.78;;;9.13;nan
13695;BME280;6919;52.344;14.518;2022-10-10T07:13:24;101024.47;;;9.05;nan
13695;BME280;6919;52.344;14.518;2022-10-10T07:15:53;101034.53;;;8.92;nan
13695;BME280;6919;52.344;14.518;2022-10-10T07:18:22;101032.47;;;9.35;nan
13695;BME280;6919;52.344;14.518;2022-10-10T07:20:54;101029.88;;;9.24;nan
13695;BME280;6919;52.344;14.518;2022-10-10T07:23:22;101024.47;;;9.45;nan
13695;BME280;6919;52.344;14.518;2022-10-10T07:25:51;101025.06;;;9.58;nan
13695;BME280;6919;52.344;14.518;2022-10-10T07:28:19;101011.53;;;9.59;nan
13695;BME280;6919;52.344;14.518;2022-10-10T07:30:47;101031.47;;;9.85;nan
13695;BME280;6919;52.344;14.518;2022-10-10T07:33:16;101018.63;;;9.98;nan
13695;BME280;6919;52.344;14.518;2022-10-10T07:35:51;101016.94;;;9.97;nan
13695;BME280;6919;52.344;14.518;2022-10-10T07:38:20;101021.63;;;10.33;nan
13695;BME280;6919;52.344;14.518;2022-10-10T07:40:48;101026.31;;;10.31;nan
13695;BME280;6919;52.344;14.518;2022-10-10T07:43:16;101015.00;;;10.37;nan
13695;BME280;6919;52.344;14.518;2022-10-10T07:45:44;101018.31;;;10.68;nan
13695;BME280;6919;52.344;14.518;2022-10-10T07:48:12;101025.38;;;10.78;nan
13695;BME280;6919;52.344;14.518;2022-10-10T07:50:41;101015.50;;;10.69;nan
13695;BME280;6919;52.344;14.518;2022-10-10T07:53:11;101012.75;;;10.42;nan
13695;BME280;6919;52.344;14.518;2022-10-10T07:55:40;101013.88;;;10.21;nan
13695;BME280;6919;52.344;14.518;2022-10-10T07:58:09;101018.09;;;10.23;nan
13695;BME280;6919;52.344;14.518;2022-10-10T08:00:38;101022.72;;;10.02;nan
13695;BME280;6919;52.344;14.518;2022-10-10T08:03:08;101020.06;;;10.40;nan
13695;BME280;6919;52.344;14.518;2022-10-10T08:05:39;101019.94;;;10.32;nan
13695;BME280;6919;52.344;14.518;2022-10-10T08:08:11;101019.75;;;10.05;nan
13695;BME280;6919;52.344;14.518;2022-10-10T08:10:42;101011.31;;;10.29;nan
13695;BME280;6919;52.344;14.518;2022-10-10T08:13:10;101014.25;;;10.54;nan
13695;BME280;6919;52.344;14.518;2022-10-10T08:15:38;101017.38;;;10.50;nan
13695;BME280;6919;52.344;14.518;2022-10-10T08:18:06;101013.03;;;10.39;nan
13695;BME280;6919;52.344;14.518;2022-10-10T08:20:34;101011.69;;;10.72;nan
13695;BME280;6919;52.344;14.518;2022-10-10T08:23:03;101006.34;;;10.62;nan
13695;BME280;6919;52.344;14.518;2022-10-10T08:25:33;101006.97;;;10.83;nan
13695;BME280;6919;52.344;14.518;2022-10-10T08:28:01;101000.38;;;11.14;nan
13695;BME280;6919;52.344;14.518;2022-10-10T08:30:29;101006.19;;;11.10;nan
13695;BME280;6919;52.344;14.518;2022-10-10T08:32:57;101000.53;;;11.13;nan
13695;BME280;6919;52.344;14.518;2022-10-10T08:35:25;100998.88;;;11.29;nan
13695;BME280;6919;52.344;14.518;2022-10-10T08:37:53;100998.72;;;11.31;nan
13695;BME280;6919;52.344;14.518;2022-10-10T08:40:22;100992.13;;;11.25;nan
13695;BME280;6919;52.344;14.518;2022-10-10T08:42:59;100989.03;;;11.47;nan
13695;BME280;6919;52.344;14.518;2022-10-10T08:45:31;100985.97;;;11.69;nan
13695;BME280;6919;52.344;14.518;2022-10-10T08:48:04;100977.59;;;11.90;nan
13695;BME280;6919;52.344;14.518;2022-10-10T08:50:36;100978.66;;;12.32;nan
13695;BME280;6919;52.344;14.518;2022-10-10T08:53:15;100979.97;;;12.28;nan
13695;BME280;6919;52.344;14.518;2022-10-10T08:55:48;100979.97;;;12.11;nan
13695;BME280;6919;52.344;14.518;2022-10-10T08:58:23;100975.34;;;12.21;nan
13695;BME280;6919;52.344;14.518;2022-10-10T09:01:03;100963.59;;;12.22;nan
13695;BME280;6919;52.344;14.518;2022-10-10T09:03:40;100959.47;;;12.53;nan
13695;BME280;6919;52.344;14.518;2022-10-10T09:06:33;100968.63;;;12.68;nan
13695;BME280;6919;52.344;14.518;2022-10-10T09:09:21;100963.22;;;12.60;nan
13695;BME280;6919;52.344;14.518;2022-10-10T09:12:05;100959.28;;;12.72;nan
13695;BME280;6919;52.344;14.518;2022-10-10T09:14:53;100959.22;;;12.97;nan
13695;BME280;6919;52.344;14.518;2022-10-10T09:17:37;100958.16;;;12.90;nan
13695;BME280;6919;52.344;14.518;2022-10-10T09:20:25;100947.50;;;12.98;nan
13695;BME280;6919;52.344;14.518;2022-10-10T09:23:02;100946.84;;;13.12;nan
13695;BME280;6919;52.344;14.518;2022-10-10T09:25:36;100954.28;;;12.85;nan
13695;BME280;6919;52.344;14.518;2022-10-10T09:28:13;100951.22;;;12.80;nan
13695;BME280;6919;52.344;14.518;2022-10-10T09:30:51;100956.16;;;12.59;nan
13695;BME280;6919;52.344;14.518;2022-10-10T09:33:27;100954.66;;;12.90;nan
13695;BME280;6919;52.344;14.518;2022-10-10T09:36:04;100946.69;;;12.80;nan
13695;BME280;6919;52.344;14.518;2022-10-10T09:38:40;100940.38;;;12.97;nan
13695;BME280;6919;52.344;14.518;2022-10-10T09:41:16;100950.16;;;13.32;nan
13695;BME280;6919;52.344;14.518;2022-10-10T09:43:46;100945.97;;;13.45;nan
13695;BME280;6919;52.344;14.518;2022-10-10T09:46:16;100940.44;;;13.63;nan
13695;BME280;6919;52.344;14.518;2022-10-10T09:48:44;100934.00;;;13.32;nan
13695;BME280;6919;52.344;14.518;2022-10-10T09:51:14;100938.13;;;13.76;nan
13695;BME280;6919;52.344;14.518;2022-10-10T09:53:45;100938.63;;;13.71;nan
13695;BME280;6919;52.344;14.518;2022-10-10T09:56:17;100937.97;;;13.77;nan
13695;BME280;6919;52.344;14.518;2022-10-10T09:58:48;100935.78;;;13.89;nan
13695;BME280;6919;52.344;14.518;2022-10-10T10:01:21;100942.50;;;13.61;nan
13695;BME280;6919;52.344;14.518;2022-10-10T10:04:13;100938.16;;;14.00;nan
13695;BME280;6919;52.344;14.518;2022-10-10T10:07:04;100943.69;;;13.74;nan
13695;BME280;6919;52.344;14.518;2022-10-10T10:09:33;100935.63;;;13.90;nan
13695;BME280;6919;52.344;14.518;2022-10-10T10:12:04;100934.13;;;13.96;nan
13695;BME280;6919;52.344;14.518;2022-10-10T10:14:36;100935.44;;;13.76;nan
13695;BME280;6919;52.344;14.518;2022-10-10T10:17:09;100929.06;;;13.85;nan
13695;BME280;6919;52.344;14.518;2022-10-10T10:19:42;100943.22;;;14.03;nan
13695;BME280;6919;52.344;14.518;2022-10-10T10:22:31;100939.00;;;14.16;nan
13695;BME280;6919;52.344;14.518;2022-10-10T10:25:30;100928.53;;;13.89;nan
13695;BME280;6919;52.344;14.518;2022-10-10T10:28:19;100930.59;;;14.11;nan
13695;BME280;6919;52.344;14.518;2022-10-10T10:30:48;100936.31;;;14.16;nan
13695;BME280;6919;52.344;14.518;2022-10-10T10:33:36;100930.06;;;14.08;nan
13695;BME280;6919;52.344;14.518;2022-10-10T10:36:24;100931.75;;;13.93;nan
13695;BME280;6919;52.344;14.518;2022-10-10T10:39:04;100929.38;;;13.82;nan
13695;BME280;6919;52.344;14.518;2022-10-10T10:41:51;100927.56;;;14.22;nan
13695;BME280;6919;52.344;14.518;2022-10-10T10:44:36;100922.31;;;14.05;nan
13695;BME280;6919;52.344;14.518;2022-10-10T10:47:25;100921.00;;;14.25;nan
13695;BME280;6919;52.344;14.518;2022-10-10T10:50:21;100905.97;;;14.30;nan
13695;BME280;6919;52.344;14.518;2022-10-10T10:52:59;100904.78;;;14.09;nan
13695;BME280;6919;52.344;14.518;2022-10-10T10:55:38;100909.84;;;14.36;nan
13695;BME280;6919;52.344;14.518;2022-10-10T10:58:36;100901.38;;;14.63;nan
13695;BME280;6919;52.344;14.518;2022-10-10T11:01:38;100890.06;;;14.59;nan
13695;BME280;6919;52.344;14.518;2022-10-10T11:04:49;100893.81;;;14.50;nan
13695;BME280;6919;52.344;14.518;2022-10-10T11:07:52;100893.28;;;14.55;nan
13695;BME280;6919;52.344;14.518;2022-10-10T11:10:35;100893.38;;;14.77;nan
13695;BME280;6919;52.344;14.518;2022-10-10T11:13:18;100884.44;;;14.77;nan
13695;BME280;6919;52.344;14.518;2022-10-10T11:15:55;100883.09;;;14.81;nan
13695;BME280;6919;52.344;14.518;2022-10-10T11:18:41;100882.56;;;14.77;nan
13695;BME280;6919;52.344;14.518;2022-10-10T11:21:17;100880.44;;;14.65;nan
13695;BME280;6919;52.344;14.518;2022-10-10T11:23:53;100872.94;;;14.83;nan
13695;BME280;6919;52.344;14.518;2022-10-10T11:26:26;100893.06;;;15.11;nan
13695;BME280;6919;52.344;14.518;2022-10-10T11:29:03;100889.56;;;15.03;nan
13695;BME280;6919;52.344;14.518;2022-10-10T11:31:39;100890.09;;;15.37;nan
13695;BME280;6919;52.344;14.518;2022-10-10T11:34:19;100885.88;;;15.34;nan
13695;BME280;6919;52.344;14.518;2022-10-10T11:36:50;100891.97;;;15.59;nan
13695;BME280;6919;52.344;14.518;2022-10-10T11:39:28;100887.88;;;15.63;nan
13695;BME280;6919;52.344;14.518;2022-10-10T11:42:02;100884.84;;;15.35;nan
13695;BME280;6919;52.344;14.518;2022-10-10T11:44:38;100879.97;;;15.39;nan
13695;BME280;6919;52.344;14.518;2022-10-10T11:47:15;100875.94;;;15.80;nan
13695;BME280;6919;52.344;14.518;2022-10-10T11:49:54;100877.44;;;15.60;nan
13695;BME280;6919;52.344;14.518;2022-10-10T11:52:33;100871.22;;;15.96;nan
13695;BME280;6919;52.344;14.518;2022-10-10T11:55:12;100873.22;;;16.02;nan
13695;BME280;6919;52.344;14.518;2022-10-10T11:57:51;100868.97;;;16.22;nan
13695;BME280;6919;52.344;14.518;2022-10-10T12:00:21;100872.31;;;16.24;nan
13695;BME280;6919;52.344;14.518;2022-10-10T12:02:54;100877.28;;;16.35;nan
13695;BME280;6919;52.344;14.518;2022-10-10T12:05:26;100875.31;;;16.52;nan
13695;BME280;6919;52.344;14.518;2022-10-10T12:08:07;100869.13;;;16.43;nan
13695;BME280;6919;52.344;14.518;2022-10-10T12:10:49;100876.63;;;15.96;nan
13695;BME280;6919;52.344;14.518;2022-10-10T12:13:27;100859.69;;;16.02;nan
13695;BME280;6919;52.344;14.518;2022-10-10T12:16:05;100845.69;;;15.99;nan
13695;BME280;6919;52.344;14.518;2022-10-10T12:18:42;100859.44;;;15.75;nan
13695;BME280;6919;52.344;14.518;2022-10-10T12:21:13;100853.09;;;15.82;nan
13695;BME280;6919;52.344;14.518;2022-10-10T12:23:45;100847.38;;;16.00;nan
13695;BME280;6919;52.344;14.518;2022-10-10T12:26:18;100844.63;;;15.85;nan
13695;BME280;6919;52.344;14.518;2022-10-10T12:29:05;100831.06;;;16.08;nan
13695;BME280;6919;52.344;14.518;2022-10-10T12:31:38;100827.97;;;15.96;nan
13695;BME280;6919;52.344;14.518;2022-10-10T12:34:16;100831.25;;;16.06;nan
13695;BME280;6919;52.344;14.518;2022-10-10T12:37:21;100821.91;;;16.09;nan
13695;BME280;6919;52.344;14.518;2022-10-10T12:40:27;100812.22;;;16.14;nan
13695;BME280;6919;52.344;14.518;2022-10-10T12:43:21;100814.69;;;16.67;nan
13695;BME280;6919;52.344;14.518;2022-10-10T12:46:15;100819.31;;;17.02;nan
13695;BME280;6919;52.344;14.518;2022-10-10T12:48:59;100810.34;;;17.02;nan
13695;BME280;6919;52.344;14.518;2022-10-10T12:51:32;100808.84;;;16.99;nan
13695;BME280;6919;52.344;14.518;2022-10-10T12:54:04;100810.69;;;16.63;nan
13695;BME280;6919;52.344;14.518;2022-10-10T12:56:37;100805.63;;;16.89;nan
13695;BME280;6919;52.344;14.518;2022-10-10T12:59:18;100789.56;;;16.73;nan
13695;BME280;6919;52.344;14.518;2022-10-10T13:01:52;100794.41;;;17.13;nan
13695;BME280;6919;52.344;14.518;2022-10-10T13:04:24;100792.31;;;17.09;nan
13695;BME280;6919;52.344;14.518;2022-10-10T13:06:57;100792.16;;;16.96;nan
13695;BME280;6919;52.344;14.518;2022-10-10T13:09:30;100794.13;;;16.87;nan
13695;BME280;6919;52.344;14.518;2022-10-10T13:12:04;100787.91;;;17.08;nan
13695;BME280;6919;52.344;14.518;2022-10-10T13:14:39;100789.63;;;16.94;nan
13695;BME280;6919;52.344;14.518;2022-10-10T13:17:21;100788.28;;;16.69;nan
13695;BME280;6919;52.344;14.518;2022-10-10T13:19:54;100778.72;;;16.88;nan
13695;BME280;6919;52.344;14.518;2022-10-10T13:22:24;100781.97;;;17.19;nan
13695;BME280;6919;52.344;14.518;2022-10-10T13:24:53;100777.25;;;17.06;nan
13695;BME280;6919;52.344;14.518;2022-10-10T13:27:24;100768.88;;;17.58;nan
13695;BME280;6919;52.344;14.518;2022-10-10T13:29:54;100774.75;;;17.05;nan
13695;BME280;6919;52.344;14.518;2022-10-10T13:32:28;100771.03;;;17.27;nan
13695;BME280;6919;52.344;14.518;2022-10-10T13:35:03;100766.97;;;16.66;nan
13695;BME280;6919;52.344;14.518;2022-10-10T13:37:34;100761.44;;;16.89;nan
13695;BME280;6919;52.344;14.518;2022-10-10T13:40:02;100762.19;;;17.18;nan
13695;BME280;6919;52.344;14.518;2022-10-10T13:42:36;100767.97;;;17.79;nan
13695;BME280;6919;52.344;14.518;2022-10-10T13:45:31;100764.19;;;19.29;nan
13695;BME280;6919;52.344;14.518;2022-10-10T13:48:25;100769.25;;;20.23;nan
13695;BME280;6919;52.344;14.518;2022-10-10T13:51:04;100773.59;;;19.26;nan
13695;BME280;6919;52.344;14.518;2022-10-10T13:53:46;100780.16;;;19.58;nan
13695;BME280;6919;52.344;14.518;2022-10-10T13:56:21;100767.97;;;19.34;nan